sensor_id;sensor_type;location;lat;lon;timestamp;pressure;altitude;pressure_sealevel;temperature;humidity
13041;BME280;6587;42.728;23.288;2023-12-22T00:00:30;93886.13;;;-0.15;82.85
13041;BME280;6587;42.728;23.288;2023-12-22T00:02:57;93884.44;;;-0.04;82.82
13041;BME280;6587;42.728;23.288;2023-12-22T00:05:24;93878.00;;;-0.10;82.16
13041;BME280;6587;42.728;23.288;2023-12-22T00:07:51;93882.88;;;-0.08;82.49
13041;BME280;6587;42.728;23.288;2023-12-22T00:10:20;93869.91;;;-0.01;81.74
13041;BME280;6587;42.728;23.288;2023-12-22T00:12:48;93868.41;;;-0.02;82.20
13041;BME280;6587;42.728;23.288;2023-12-22T00:15:15;93867.59;;;0.17;82.12
13041;BME280;6587;42.728;23.288;2023-12-22T00:17:42;93853.69;;;0.13;81.32
13041;BME280;6587;42.728;23.288;2023-12-22T00:20:10;93851.59;;;0.22;81.35
13041;BME280;6587;42.728;23.288;2023-12-22T00:22:38;93854.44;;;0.13;81.28
13041;BME280;6587;42.728;23.288;2023-12-22T00:25:06;93854.34;;;0.06;81.94
13041;BME280;6587;42.728;23.288;2023-12-22T00:27:35;93845.56;;;-0.28;81.81
13041;BME280;6587;42.728;23.288;2023-12-22T00:30:02;93847.06;;;-0.04;81.92
13041;BME280;6587;42.728;23.288;2023-12-22T00:32:29;93840.97;;;-0.12;81.60
13041;BME280;6587;42.728;23.288;2023-12-22T00:34:56;93833.19;;;-0.08;82.14
13041;BME280;6587;42.728;23.288;2023-12-22T00:37:23;93829.81;;;-0.09;82.10
13041;BME280;6587;42.728;23.288;2023-12-22T00:39:50;93820.34;;;-0.17;82.43
13041;BME280;6587;42.728;23.288;2023-12-22T00:42:18;93822.47;;;0.00;82.80
13041;BME280;6587;42.728;23.288;2023-12-22T00:44:46;93838.16;;;0.23;81.48
13041;BME280;6587;42.728;23.288;2023-12-22T00:47:13;93832.06;;;0.42;80.98
13041;BME280;6587;42.728;23.288;2023-12-22T00:49:40;93829.09;;;0.43;80.90
13041;BME280;6587;42.728;23.288;2023-12-22T00:52:08;93836.91;;;0.40;80.81
13041;BME280;6587;42.728;23.288;2023-12-22T00:54:35;93831.56;;;0.33;80.92
13041;BME280;6587;42.728;23.288;2023-12-22T00:57:02;93818.66;;;0.21;81.44
13041;BME280;6587;42.728;23.288;2023-12-22T00:59:29;93819.59;;;0.32;81.01
13041;BME280;6587;42.728;23.288;2023-12-22T01:01:58;93825.34;;;0.41;80.99
13041;BME280;6587;42.728;23.288;2023-12-22T01:04:24;93820.13;;;0.70;80.37
13041;BME280;6587;42.728;23.288;2023-12-22T01:06:51;93818.56;;;0.66;80.30
13041;BME280;6587;42.728;23.288;2023-12-22T01:09:18;93822.22;;;0.58;79.81
13041;BME280;6587;42.728;23.288;2023-12-22T01:11:45;93816.44;;;0.49;79.95
13041;BME280;6587;42.728;23.288;2023-12-22T01:14:13;93819.06;;;0.49;80.12
13041;BME280;6587;42.728;23.288;2023-12-22T01:16:40;93814.84;;;0.67;80.26
13041;BME280;6587;42.728;23.288;2023-12-22T01:19:08;93811.22;;;0.75;79.69
13041;BME280;6587;42.728;23.288;2023-12-22T01:21:35;93807.28;;;0.62;80.29
13041;BME280;6587;42.728;23.288;2023-12-22T01:24:02;93808.72;;;0.56;79.94
13041;BME280;6587;42.728;23.288;2023-12-22T01:26:29;93815.25;;;0.43;79.66
13041;BME280;6587;42.728;23.288;2023-12-22T01:28:56;93797.22;;;0.38;80.22
13041;BME280;6587;42.728;23.288;2023-12-22T01:31:22;93792.09;;;0.45;80.44
13041;BME280;6587;42.728;23.288;2023-12-22T01:33:49;93797.22;;;0.34;80.00
13041;BME280;6587;42.728;23.288;2023-12-22T01:36:18;93786.34;;;0.06;81.30
13041;BME280;6587;42.728;23.288;2023-12-22T01:38:44;93786.75;;;0.38;80.20
13041;BME280;6587;42.728;23.288;2023-12-22T01:41:11;93781.09;;;0.32;80.58
13041;BME280;6587;42.728;23.288;2023-12-22T01:43:38;93772.25;;;0.14;80.34
13041;BME280;6587;42.728;23.288;2023-12-22T01:46:06;93768.47;;;-0.15;80.98
13041;BME280;6587;42.728;23.288;2023-12-22T01:48:35;93778.28;;;-0.31;82.60
13041;BME280;6587;42.728;23.288;2023-12-22T01:51:04;93772.13;;;0.07;82.71
13041;BME280;6587;42.728;23.288;2023-12-22T01:53:33;93775.50;;;0.34;81.62
13041;BME280;6587;42.728;23.288;2023-12-22T01:56:02;93766.34;;;0.21;81.67
13041;BME280;6587;42.728;23.288;2023-12-22T01:58:30;93766.75;;;0.23;82.13
13041;BME280;6587;42.728;23.288;2023-12-22T02:01:08;93769.81;;;0.54;81.65
13041;BME280;6587;42.728;23.288;2023-12-22T02:03:35;93774.03;;;0.62;80.90
13041;BME280;6587;42.728;23.288;2023-12-22T02:06:02;93766.66;;;0.71;80.46
13041;BME280;6587;42.728;23.288;2023-12-22T02:08:33;93773.66;;;0.64;80.94
13041;BME280;6587;42.728;23.288;2023-12-22T02:11:00;93767.72;;;0.67;80.63
13041;BME280;6587;42.728;23.288;2023-12-22T02:13:28;93756.00;;;0.28;80.82
13041;BME280;6587;42.728;23.288;2023-12-22T02:16:01;93748.94;;;0.32;81.25
13041;BME280;6587;42.728;23.288;2023-12-22T02:18:33;93758.19;;;0.52;81.29
13041;BME280;6587;42.728;23.288;2023-12-22T02:21:01;93741.13;;;0.65;81.81
13041;BME280;6587;42.728;23.288;2023-12-22T02:23:30;93752.88;;;0.78;80.94
13041;BME280;6587;42.728;23.288;2023-12-22T02:26:04;93758.84;;;0.75;80.69
13041;BME280;6587;42.728;23.288;2023-12-22T02:28:34;93746.47;;;0.72;80.37
13041;BME280;6587;42.728;23.288;2023-12-22T02:31:07;93745.88;;;0.56;80.37
13041;BME280;6587;42.728;23.288;2023-12-22T02:33:38;93748.41;;;0.49;80.74
13041;BME280;6587;42.728;23.288;2023-12-22T02:36:08;93753.16;;;0.40;81.37
13041;BME280;6587;42.728;23.288;2023-12-22T02:38:38;93766.03;;;0.26;81.79
13041;BME280;6587;42.728;23.288;2023-12-22T02:41:06;93754.63;;;0.37;82.03
13041;BME280;6587;42.728;23.288;2023-12-22T02:43:33;93749.44;;;0.41;81.78
13041;BME280;6587;42.728;23.288;2023-12-22T02:46:01;93746.66;;;0.60;81.42
13041;BME280;6587;42.728;23.288;2023-12-22T02:48:28;93745.63;;;0.64;80.92
13041;BME280;6587;42.728;23.288;2023-12-22T02:50:55;93733.19;;;0.58;80.27
13041;BME280;6587;42.728;23.288;2023-12-22T02:53:22;93725.03;;;0.33;81.22
13041;BME280;6587;42.728;23.288;2023-12-22T02:55:50;93720.19;;;0.35;82.14
13041;BME280;6587;42.728;23.288;2023-12-22T02:58:17;93715.09;;;0.46;81.87
13041;BME280;6587;42.728;23.288;2023-12-22T03:00:44;93734.63;;;0.52;81.44
13041;BME280;6587;42.728;23.288;2023-12-22T03:03:11;93729.06;;;0.57;81.82
13041;BME280;6587;42.728;23.288;2023-12-22T03:05:39;93732.75;;;0.85;81.60
13041;BME280;6587;42.728;23.288;2023-12-22T03:08:06;93724.53;;;0.87;80.61
13041;BME280;6587;42.728;23.288;2023-12-22T03:10:33;93724.75;;;0.71;80.95
13041;BME280;6587;42.728;23.288;2023-12-22T03:13:01;93728.09;;;0.68;81.38
13041;BME280;6587;42.728;23.288;2023-12-22T03:15:28;93730.19;;;0.89;81.16
13041;BME280;6587;42.728;23.288;2023-12-22T03:17:55;93738.03;;;0.89;80.42
13041;BME280;6587;42.728;23.288;2023-12-22T03:20:21;93723.69;;;0.76;81.42
13041;BME280;6587;42.728;23.288;2023-12-22T03:22:48;93732.00;;;0.85;81.01
13041;BME280;6587;42.728;23.288;2023-12-22T03:25:15;93734.25;;;0.83;81.37
13041;BME280;6587;42.728;23.288;2023-12-22T03:27:42;93727.09;;;0.80;80.84
13041;BME280;6587;42.728;23.288;2023-12-22T03:30:12;93728.97;;;0.79;81.20
13041;BME280;6587;42.728;23.288;2023-12-22T03:32:39;93741.50;;;0.96;81.27
13041;BME280;6587;42.728;23.288;2023-12-22T03:35:06;93723.25;;;1.03;80.05
13041;BME280;6587;42.728;23.288;2023-12-22T03:37:33;93727.56;;;0.89;79.59
13041;BME280;6587;42.728;23.288;2023-12-22T03:40:00;93721.88;;;0.80;80.70
13041;BME280;6587;42.728;23.288;2023-12-22T03:42:26;93720.34;;;0.79;81.07
13041;BME280;6587;42.728;23.288;2023-12-22T03:44:54;93705.38;;;0.79;81.46
13041;BME280;6587;42.728;23.288;2023-12-22T03:47:22;93711.91;;;0.96;81.62
13041;BME280;6587;42.728;23.288;2023-12-22T03:49:49;93717.91;;;0.96;81.33
13041;BME280;6587;42.728;23.288;2023-12-22T03:52:16;93718.44;;;0.76;81.64
13041;BME280;6587;42.728;23.288;2023-12-22T03:54:43;93717.88;;;0.93;81.61
13041;BME280;6587;42.728;23.288;2023-12-22T03:57:10;93721.47;;;0.78;81.41
13041;BME280;6587;42.728;23.288;2023-12-22T03:59:37;93717.28;;;0.40;82.87
13041;BME280;6587;42.728;23.288;2023-12-22T04:02:04;93727.31;;;0.68;82.82
13041;BME280;6587;42.728;23.288;2023-12-22T04:04:32;93719.19;;;0.43;82.35
13041;BME280;6587;42.728;23.288;2023-12-22T04:07:03;93722.22;;;0.49;83.25
13041;BME280;6587;42.728;23.288;2023-12-22T04:09:30;93718.69;;;0.34;83.38
13041;BME280;6587;42.728;23.288;2023-12-22T04:11:57;93717.19;;;0.33;83.50
13041;BME280;6587;42.728;23.288;2023-12-22T04:14:24;93726.13;;;0.62;83.55
13041;BME280;6587;42.728;23.288;2023-12-22T04:16:51;93721.50;;;0.48;83.47
13041;BME280;6587;42.728;23.288;2023-12-22T04:19:18;93717.31;;;0.44;84.87
13041;BME280;6587;42.728;23.288;2023-12-22T04:21:46;93724.06;;;0.78;84.22
13041;BME280;6587;42.728;23.288;2023-12-22T04:24:13;93723.47;;;0.58;84.44
13041;BME280;6587;42.728;23.288;2023-12-22T04:26:41;93719.16;;;0.73;84.04
13041;BME280;6587;42.728;23.288;2023-12-22T04:29:09;93706.47;;;0.75;84.51
13041;BME280;6587;42.728;23.288;2023-12-22T04:31:36;93714.31;;;1.08;83.96
13041;BME280;6587;42.728;23.288;2023-12-22T04:34:03;93702.97;;;1.00;83.90
13041;BME280;6587;42.728;23.288;2023-12-22T04:36:30;93717.69;;;1.12;83.78
13041;BME280;6587;42.728;23.288;2023-12-22T04:38:58;93697.06;;;1.07;83.88
13041;BME280;6587;42.728;23.288;2023-12-22T04:41:25;93704.06;;;0.96;84.28
13041;BME280;6587;42.728;23.288;2023-12-22T04:43:52;93708.34;;;1.11;84.58
13041;BME280;6587;42.728;23.288;2023-12-22T04:46:19;93695.88;;;1.01;84.38
13041;BME280;6587;42.728;23.288;2023-12-22T04:48:45;93694.94;;;1.19;84.70
13041;BME280;6587;42.728;23.288;2023-12-22T04:51:12;93693.59;;;1.36;84.31
13041;BME280;6587;42.728;23.288;2023-12-22T04:53:39;93690.56;;;1.34;84.19
13041;BME280;6587;42.728;23.288;2023-12-22T04:56:07;93696.63;;;1.41;84.97
13041;BME280;6587;42.728;23.288;2023-12-22T04:58:34;93691.75;;;1.40;85.27
13041;BME280;6587;42.728;23.288;2023-12-22T05:01:02;93688.63;;;1.27;85.92
13041;BME280;6587;42.728;23.288;2023-12-22T05:03:28;93684.16;;;1.28;85.91
13041;BME280;6587;42.728;23.288;2023-12-22T05:05:55;93674.56;;;1.02;86.18
13041;BME280;6587;42.728;23.288;2023-12-22T05:08:22;93677.50;;;1.41;86.41
13041;BME280;6587;42.728;23.288;2023-12-22T05:10:49;93676.09;;;1.47;85.89
13041;BME280;6587;42.728;23.288;2023-12-22T05:13:18;93666.75;;;1.53;85.16
13041;BME280;6587;42.728;23.288;2023-12-22T05:15:45;93673.72;;;1.35;85.18
13041;BME280;6587;42.728;23.288;2023-12-22T05:18:11;93679.38;;;1.37;85.66
13041;BME280;6587;42.728;23.288;2023-12-22T05:20:40;93680.84;;;1.34;85.97
13041;BME280;6587;42.728;23.288;2023-12-22T05:23:07;93674.88;;;1.37;85.93
13041;BME280;6587;42.728;23.288;2023-12-22T05:25:34;93687.75;;;1.53;86.16
13041;BME280;6587;42.728;23.288;2023-12-22T05:28:01;93695.38;;;1.25;85.88
13041;BME280;6587;42.728;23.288;2023-12-22T05:30:30;93693.94;;;0.91;86.95
13041;BME280;6587;42.728;23.288;2023-12-22T05:32:57;93683.69;;;1.15;86.98
13041;BME280;6587;42.728;23.288;2023-12-22T05:35:23;93680.13;;;1.41;86.89
13041;BME280;6587;42.728;23.288;2023-12-22T05:37:50;93691.50;;;1.55;86.85
13041;BME280;6587;42.728;23.288;2023-12-22T05:40:17;93682.16;;;1.58;86.57
13041;BME280;6587;42.728;23.288;2023-12-22T05:42:44;93683.31;;;1.64;86.57
13041;BME280;6587;42.728;23.288;2023-12-22T05:45:12;93669.09;;;1.65;86.30
13041;BME280;6587;42.728;23.288;2023-12-22T05:47:40;93675.81;;;1.66;86.51
13041;BME280;6587;42.728;23.288;2023-12-22T05:50:08;93679.00;;;1.89;86.22
13041;BME280;6587;42.728;23.288;2023-12-22T05:52:36;93670.06;;;1.97;86.66
13041;BME280;6587;42.728;23.288;2023-12-22T05:55:03;93675.69;;;2.03;86.17
13041;BME280;6587;42.728;23.288;2023-12-22T05:57:30;93674.66;;;2.18;85.75
13041;BME280;6587;42.728;23.288;2023-12-22T05:59:57;93674.34;;;2.26;85.76
13041;BME280;6587;42.728;23.288;2023-12-22T06:02:25;93676.22;;;2.29;85.53
13041;BME280;6587;42.728;23.288;2023-12-22T06:04:53;93675.38;;;2.11;85.84
13041;BME280;6587;42.728;23.288;2023-12-22T06:07:20;93672.06;;;2.25;85.92
13041;BME280;6587;42.728;23.288;2023-12-22T06:09:47;93677.69;;;2.23;85.96
13041;BME280;6587;42.728;23.288;2023-12-22T06:12:14;93669.84;;;2.27;86.19
13041;BME280;6587;42.728;23.288;2023-12-22T06:14:41;93679.25;;;2.31;85.93
13041;BME280;6587;42.728;23.288;2023-12-22T06:17:08;93681.50;;;2.33;86.06
13041;BME280;6587;42.728;23.288;2023-12-22T06:19:35;93686.38;;;2.41;86.01
13041;BME280;6587;42.728;23.288;2023-12-22T06:22:03;93682.31;;;2.47;86.75
13041;BME280;6587;42.728;23.288;2023-12-22T06:24:31;93678.56;;;2.55;85.73
13041;BME280;6587;42.728;23.288;2023-12-22T06:26:58;93678.94;;;2.50;85.97
13041;BME280;6587;42.728;23.288;2023-12-22T06:29:24;93674.00;;;2.38;86.16
13041;BME280;6587;42.728;23.288;2023-12-22T06:31:51;93670.22;;;2.32;86.03
13041;BME280;6587;42.728;23.288;2023-12-22T06:34:18;93675.19;;;2.44;86.71
13041;BME280;6587;42.728;23.288;2023-12-22T06:36:45;93677.06;;;2.54;86.40
13041;BME280;6587;42.728;23.288;2023-12-22T06:39:13;93680.88;;;2.67;86.23
13041;BME280;6587;42.728;23.288;2023-12-22T06:41:40;93679.75;;;2.68;85.73
13041;BME280;6587;42.728;23.288;2023-12-22T06:44:07;93684.66;;;2.73;85.81
13041;BME280;6587;42.728;23.288;2023-12-22T06:46:36;93683.16;;;2.69;85.49
13041;BME280;6587;42.728;23.288;2023-12-22T06:49:06;93684.63;;;2.63;85.74
13041;BME280;6587;42.728;23.288;2023-12-22T06:51:33;93689.13;;;2.69;86.08
13041;BME280;6587;42.728;23.288;2023-12-22T06:54:00;93694.41;;;2.76;85.74
13041;BME280;6587;42.728;23.288;2023-12-22T06:56:29;93692.97;;;2.89;85.03
13041;BME280;6587;42.728;23.288;2023-12-22T06:58:57;93702.72;;;2.92;85.63
13041;BME280;6587;42.728;23.288;2023-12-22T07:01:26;93700.84;;;2.86;85.86
13041;BME280;6587;42.728;23.288;2023-12-22T07:03:53;93699.72;;;2.90;85.96
13041;BME280;6587;42.728;23.288;2023-12-22T07:06:21;93696.72;;;2.95;85.42
13041;BME280;6587;42.728;23.288;2023-12-22T07:09:29;93703.09;;;2.87;85.63
13041;BME280;6587;42.728;23.288;2023-12-22T07:11:57;93704.97;;;2.83;85.46
13041;BME280;6587;42.728;23.288;2023-12-22T07:14:25;93703.47;;;2.89;85.67
13041;BME280;6587;42.728;23.288;2023-12-22T07:16:52;93699.72;;;2.94;85.38
13041;BME280;6587;42.728;23.288;2023-12-22T07:19:18;93708.81;;;3.17;85.90
13041;BME280;6587;42.728;23.288;2023-12-22T07:21:45;93710.31;;;3.26;85.92
13041;BME280;6587;42.728;23.288;2023-12-22T07:24:12;93723.88;;;3.38;85.44
13041;BME280;6587;42.728;23.288;2023-12-22T07:26:39;93715.59;;;3.33;85.85
13041;BME280;6587;42.728;23.288;2023-12-22T07:29:07;93713.31;;;3.20;85.49
13041;BME280;6587;42.728;23.288;2023-12-22T07:31:35;93718.97;;;3.30;85.84
13041;BME280;6587;42.728;23.288;2023-12-22T07:34:03;93718.59;;;3.24;86.42
13041;BME280;6587;42.728;23.288;2023-12-22T07:36:30;93716.69;;;3.17;87.31
13041;BME280;6587;42.728;23.288;2023-12-22T07:38:57;93713.66;;;3.12;87.93
13041;BME280;6587;42.728;23.288;2023-12-22T07:41:24;93718.59;;;3.38;87.57
13041;BME280;6587;42.728;23.288;2023-12-22T07:43:51;93712.19;;;3.21;87.80
13041;BME280;6587;42.728;23.288;2023-12-22T07:46:20;93719.69;;;3.23;87.95
13041;BME280;6587;42.728;23.288;2023-12-22T07:48:48;93720.47;;;3.23;88.72
13041;BME280;6587;42.728;23.288;2023-12-22T07:51:16;93727.66;;;3.48;88.05
13041;BME280;6587;42.728;23.288;2023-12-22T07:53:43;93729.09;;;3.20;89.05
13041;BME280;6587;42.728;23.288;2023-12-22T07:56:10;93733.25;;;3.36;88.59
13041;BME280;6587;42.728;23.288;2023-12-22T07:58:37;93738.13;;;3.41;88.95
13041;BME280;6587;42.728;23.288;2023-12-22T08:01:04;93741.53;;;3.52;88.41
13041;BME280;6587;42.728;23.288;2023-12-22T08:03:33;93756.19;;;3.49;88.70
13041;BME280;6587;42.728;23.288;2023-12-22T08:06:00;93755.41;;;3.35;89.02
13041;BME280;6587;42.728;23.288;2023-12-22T08:08:27;93761.84;;;3.48;89.76
13041;BME280;6587;42.728;23.288;2023-12-22T08:10:54;93765.22;;;3.66;89.89
13041;BME280;6587;42.728;23.288;2023-12-22T08:13:21;93779.50;;;3.61;88.84
13041;BME280;6587;42.728;23.288;2023-12-22T08:15:48;93771.25;;;3.63;89.74
13041;BME280;6587;42.728;23.288;2023-12-22T08:18:14;93771.63;;;3.65;88.75
13041;BME280;6587;42.728;23.288;2023-12-22T08:20:43;93768.25;;;3.75;88.76
13041;BME280;6587;42.728;23.288;2023-12-22T08:23:09;93773.09;;;3.52;89.81
13041;BME280;6587;42.728;23.288;2023-12-22T08:25:37;93774.59;;;3.42;89.54
13041;BME280;6587;42.728;23.288;2023-12-22T08:28:05;93772.28;;;3.27;91.22
13041;BME280;6587;42.728;23.288;2023-12-22T08:30:32;93769.31;;;3.32;90.60
13041;BME280;6587;42.728;23.288;2023-12-22T08:33:03;93772.72;;;3.50;91.37
13041;BME280;6587;42.728;23.288;2023-12-22T08:35:30;93775.34;;;3.50;90.67
13041;BME280;6587;42.728;23.288;2023-12-22T08:37:58;93780.28;;;3.62;90.84
13041;BME280;6587;42.728;23.288;2023-12-22T08:40:25;93777.22;;;3.46;91.64
13041;BME280;6587;42.728;23.288;2023-12-22T08:42:52;93777.97;;;3.50;91.81
13041;BME280;6587;42.728;23.288;2023-12-22T08:45:25;93784.78;;;3.65;92.00
13041;BME280;6587;42.728;23.288;2023-12-22T08:47:54;93788.56;;;3.92;92.15
13041;BME280;6587;42.728;23.288;2023-12-22T08:50:21;93782.19;;;3.93;90.95
13041;BME280;6587;42.728;23.288;2023-12-22T08:52:48;93776.53;;;3.98;91.03
13041;BME280;6587;42.728;23.288;2023-12-22T08:55:16;93776.88;;;3.72;91.98
13041;BME280;6587;42.728;23.288;2023-12-22T08:57:43;93783.28;;;3.92;91.00
13041;BME280;6587;42.728;23.288;2023-12-22T09:00:11;93784.41;;;3.87;91.22
13041;BME280;6587;42.728;23.288;2023-12-22T09:02:38;93795.69;;;3.95;90.84
13041;BME280;6587;42.728;23.288;2023-12-22T09:05:06;93802.09;;;3.87;90.76
13041;BME280;6587;42.728;23.288;2023-12-22T09:07:33;93801.31;;;3.58;92.41
13041;BME280;6587;42.728;23.288;2023-12-22T09:10:00;93811.13;;;3.86;92.16
13041;BME280;6587;42.728;23.288;2023-12-22T09:12:28;93811.06;;;3.68;91.59
13041;BME280;6587;42.728;23.288;2023-12-22T09:14:55;93808.84;;;3.70;91.63
13041;BME280;6587;42.728;23.288;2023-12-22T09:17:26;93815.59;;;3.61;92.71
13041;BME280;6587;42.728;23.288;2023-12-22T09:19:53;93811.44;;;3.67;92.40
13041;BME280;6587;42.728;23.288;2023-12-22T09:22:19;93811.84;;;3.62;92.58
13041;BME280;6587;42.728;23.288;2023-12-22T09:24:47;93809.59;;;3.60;93.06
13041;BME280;6587;42.728;23.288;2023-12-22T09:27:14;93806.94;;;3.57;93.60
13041;BME280;6587;42.728;23.288;2023-12-22T09:29:42;93799.41;;;3.55;92.78
13041;BME280;6587;42.728;23.288;2023-12-22T09:32:09;93807.31;;;3.66;93.87
13041;BME280;6587;42.728;23.288;2023-12-22T09:34:36;93798.31;;;3.70;93.30
13041;BME280;6587;42.728;23.288;2023-12-22T09:37:04;93796.81;;;3.80;94.01
13041;BME280;6587;42.728;23.288;2023-12-22T09:39:31;93785.56;;;3.86;93.95
13041;BME280;6587;42.728;23.288;2023-12-22T09:41:58;93797.22;;;3.96;94.38
13041;BME280;6587;42.728;23.288;2023-12-22T09:44:25;93790.81;;;4.14;93.64
13041;BME280;6587;42.728;23.288;2023-12-22T09:46:58;93799.84;;;4.17;93.72
13041;BME280;6587;42.728;23.288;2023-12-22T09:49:26;93791.56;;;4.18;92.90
13041;BME280;6587;42.728;23.288;2023-12-22T09:51:54;93781.38;;;4.48;93.13
13041;BME280;6587;42.728;23.288;2023-12-22T09:54:21;93788.50;;;4.69;93.31
13041;BME280;6587;42.728;23.288;2023-12-22T09:56:50;93788.50;;;4.62;92.54
13041;BME280;6587;42.728;23.288;2023-12-22T09:59:17;93787.78;;;4.47;91.72
13041;BME280;6587;42.728;23.288;2023-12-22T10:01:47;93783.66;;;4.22;91.89
13041;BME280;6587;42.728;23.288;2023-12-22T10:04:17;93770.13;;;4.23;92.68
13041;BME280;6587;42.728;23.288;2023-12-22T10:06:47;93778.78;;;4.24;93.79
13041;BME280;6587;42.728;23.288;2023-12-22T10:09:16;93781.00;;;4.53;93.54
13041;BME280;6587;42.728;23.288;2023-12-22T10:11:44;93778.00;;;4.58;92.30
13041;BME280;6587;42.728;23.288;2023-12-22T10:14:12;93770.81;;;4.59;91.38
13041;BME280;6587;42.728;23.288;2023-12-22T10:16:46;93754.63;;;4.64;91.37
13041;BME280;6587;42.728;23.288;2023-12-22T10:19:13;93755.38;;;4.68;91.58
13041;BME280;6587;42.728;23.288;2023-12-22T10:21:42;93759.41;;;4.97;91.46
13041;BME280;6587;42.728;23.288;2023-12-22T10:24:38;93752.13;;;5.29;90.57
13041;BME280;6587;42.728;23.288;2023-12-22T10:27:08;93745.69;;;5.30;88.64
13041;BME280;6587;42.728;23.288;2023-12-22T10:29:35;93741.41;;;5.57;87.66
13041;BME280;6587;42.728;23.288;2023-12-22T10:32:03;93741.66;;;5.73;86.33
13041;BME280;6587;42.728;23.288;2023-12-22T10:34:31;93737.09;;;5.81;84.65
13041;BME280;6587;42.728;23.288;2023-12-22T10:37:00;93741.66;;;5.73;83.96
13041;BME280;6587;42.728;23.288;2023-12-22T10:39:27;93717.88;;;5.84;82.67
13041;BME280;6587;42.728;23.288;2023-12-22T10:41:55;93717.66;;;6.08;81.89
13041;BME280;6587;42.728;23.288;2023-12-22T10:44:24;93711.31;;;6.43;80.85
13041;BME280;6587;42.728;23.288;2023-12-22T10:46:51;93696.09;;;7.14;79.52
13041;BME280;6587;42.728;23.288;2023-12-22T10:49:18;93698.50;;;8.08;76.25
13041;BME280;6587;42.728;23.288;2023-12-22T10:51:45;93700.25;;;8.41;73.93
13041;BME280;6587;42.728;23.288;2023-12-22T10:54:13;93693.84;;;8.16;72.38
13041;BME280;6587;42.728;23.288;2023-12-22T10:56:40;93694.38;;;8.30;72.24
13041;BME280;6587;42.728;23.288;2023-12-22T10:59:07;93693.47;;;8.17;72.14
13041;BME280;6587;42.728;23.288;2023-12-22T11:01:36;93709.16;;;7.55;72.93
13041;BME280;6587;42.728;23.288;2023-12-22T11:04:06;93707.53;;;6.78;75.35
13041;BME280;6587;42.728;23.288;2023-12-22T11:06:34;93700.56;;;6.91;76.21
13041;BME280;6587;42.728;23.288;2023-12-22T11:09:06;93672.50;;;7.53;75.94
13041;BME280;6587;42.728;23.288;2023-12-22T11:11:37;93670.81;;;9.66;72.06
13041;BME280;6587;42.728;23.288;2023-12-22T11:14:05;93661.63;;;12.04;64.60
13041;BME280;6587;42.728;23.288;2023-12-22T11:16:33;93660.88;;;12.50;61.51
13041;BME280;6587;42.728;23.288;2023-12-22T11:19:01;93654.63;;;11.98;59.95
13041;BME280;6587;42.728;23.288;2023-12-22T11:21:30;93656.00;;;11.90;59.70
13041;BME280;6587;42.728;23.288;2023-12-22T11:23:58;93658.94;;;10.63;61.46
13041;BME280;6587;42.728;23.288;2023-12-22T11:26:26;93660.25;;;9.10;64.46
13041;BME280;6587;42.728;23.288;2023-12-22T11:28:55;93669.72;;;8.10;67.42
13041;BME280;6587;42.728;23.288;2023-12-22T11:31:23;93670.28;;;7.98;68.34
13041;BME280;6587;42.728;23.288;2023-12-22T11:33:52;93676.25;;;7.29;70.70
13041;BME280;6587;42.728;23.288;2023-12-22T11:36:20;93695.44;;;7.07;72.44
13041;BME280;6587;42.728;23.288;2023-12-22T11:38:48;93692.38;;;7.12;72.88
13041;BME280;6587;42.728;23.288;2023-12-22T11:41:18;93703.94;;;6.95;73.63
13041;BME280;6587;42.728;23.288;2023-12-22T11:43:47;93710.34;;;6.64;73.99
13041;BME280;6587;42.728;23.288;2023-12-22T11:46:17;93702.75;;;6.66;74.75
13041;BME280;6587;42.728;23.288;2023-12-22T11:48:48;93706.47;;;6.72;75.22
13041;BME280;6587;42.728;23.288;2023-12-22T11:51:16;93710.66;;;6.66;75.40
13041;BME280;6587;42.728;23.288;2023-12-22T11:53:43;93702.16;;;6.51;74.45
13041;BME280;6587;42.728;23.288;2023-12-22T11:56:11;93695.34;;;6.50;75.07
13041;BME280;6587;42.728;23.288;2023-12-22T11:58:40;93699.41;;;6.24;74.44
13041;BME280;6587;42.728;23.288;2023-12-22T12:01:08;93699.78;;;6.23;74.12
13041;BME280;6587;42.728;23.288;2023-12-22T12:03:47;93693.34;;;6.27;74.47
13041;BME280;6587;42.728;23.288;2023-12-22T12:06:17;93696.84;;;6.14;73.88
13041;BME280;6587;42.728;23.288;2023-12-22T12:08:48;93698.34;;;6.18;74.85
13041;BME280;6587;42.728;23.288;2023-12-22T12:11:16;93705.22;;;6.09;74.22
13041;BME280;6587;42.728;23.288;2023-12-22T12:13:45;93705.50;;;6.18;74.38
13041;BME280;6587;42.728;23.288;2023-12-22T12:16:12;93706.53;;;6.31;73.68
13041;BME280;6587;42.728;23.288;2023-12-22T12:18:41;93691.94;;;6.12;74.33
13041;BME280;6587;42.728;23.288;2023-12-22T12:21:10;93702.31;;;5.96;74.64
13041;BME280;6587;42.728;23.288;2023-12-22T12:23:37;93682.66;;;5.97;74.97
13041;BME280;6587;42.728;23.288;2023-12-22T12:26:06;93680.81;;;5.94;74.50
13041;BME280;6587;42.728;23.288;2023-12-22T12:28:35;93673.38;;;5.82;75.28
13041;BME280;6587;42.728;23.288;2023-12-22T12:31:04;93663.88;;;5.88;74.64
13041;BME280;6587;42.728;23.288;2023-12-22T12:33:30;93664.22;;;5.90;74.22
13041;BME280;6587;42.728;23.288;2023-12-22T12:36:00;93668.69;;;6.00;73.83
13041;BME280;6587;42.728;23.288;2023-12-22T12:38:40;93655.88;;;5.95;73.20
13041;BME280;6587;42.728;23.288;2023-12-22T12:41:10;93657.00;;;5.98;73.32
13041;BME280;6587;42.728;23.288;2023-12-22T12:43:41;93642.25;;;6.00;72.70
13041;BME280;6587;42.728;23.288;2023-12-22T12:46:09;93645.28;;;6.02;72.83
13041;BME280;6587;42.728;23.288;2023-12-22T12:48:37;93641.38;;;6.14;72.35
13041;BME280;6587;42.728;23.288;2023-12-22T12:51:06;93656.34;;;6.27;71.92
13041;BME280;6587;42.728;23.288;2023-12-22T12:53:36;93670.34;;;6.24;71.38
13041;BME280;6587;42.728;23.288;2023-12-22T12:56:04;93672.66;;;6.15;72.08
13041;BME280;6587;42.728;23.288;2023-12-22T12:58:32;93682.91;;;6.13;72.39
13041;BME280;6587;42.728;23.288;2023-12-22T13:01:10;93674.19;;;6.16;73.00
13041;BME280;6587;42.728;23.288;2023-12-22T13:03:52;93695.03;;;6.07;73.36
13041;BME280;6587;42.728;23.288;2023-12-22T13:06:21;93696.56;;;6.01;72.80
13041;BME280;6587;42.728;23.288;2023-12-22T13:08:48;93681.19;;;5.93;72.75
13041;BME280;6587;42.728;23.288;2023-12-22T13:11:16;93680.78;;;5.98;73.30
13041;BME280;6587;42.728;23.288;2023-12-22T13:13:47;93674.03;;;5.93;72.78